createdAt,value
2022-08-05T00:01:55.327Z,84.73
2022-08-05T00:04:36.239Z,86.04
2022-08-05T00:07:59.253Z,86.28
2022-08-05T00:09:53.569Z,86.38
2022-08-05T00:12:24.756Z,87.00
2022-08-05T00:14:53.307Z,85.99
2022-08-05T00:17:22.231Z,85.94
2022-08-05T00:20:01.880Z,86.61
2022-08-05T00:22:31.697Z,85.86
2022-08-05T00:25:00.465Z,86.73
2022-08-05T00:27:36.256Z,86.41
2022-08-05T00:30:11.544Z,86.23
2022-08-05T00:32:41.396Z,86.45
2022-08-05T00:35:11.629Z,85.82
2022-08-05T00:37:53.069Z,85.68
2022-08-05T00:40:29.191Z,86.73
2022-08-05T00:43:03.054Z,85.42
2022-08-05T00:45:43.123Z,85.16
2022-08-05T00:48:15.108Z,86.00
2022-08-05T00:50:47.159Z,85.98
2022-08-05T00:53:45.247Z,86.11
2022-08-05T00:56:07.945Z,86.80
2022-08-05T00:58:38.894Z,85.60
2022-08-05T01:01:12.106Z,85.17
2022-08-05T01:03:41.565Z,85.33
2022-08-05T01:06:15.350Z,85.76
2022-08-05T01:08:44.981Z,86.33
2022-08-05T01:11:33.310Z,87.04
2022-08-05T01:14:15.513Z,87.16
2022-08-05T01:16:52.271Z,87.53
2022-08-05T01:19:56.962Z,89.21
2022-08-05T01:22:46.852Z,87.95
2022-08-05T01:25:40.738Z,88.63
2022-08-05T01:28:31.419Z,87.97
2022-08-05T01:31:10.033Z,88.70
2022-08-05T01:33:53.530Z,88.17
2022-08-05T01:36:28.639Z,89.15
2022-08-05T01:39:00.144Z,89.73
2022-08-05T01:41:36.572Z,89.48
2022-08-05T01:44:10.037Z,90.19
2022-08-05T01:46:46.169Z,89.66
2022-08-05T01:49:28.168Z,90.01
2022-08-05T01:52:19.518Z,91.30
2022-08-05T01:54:55.168Z,91.68
2022-08-05T01:58:12.974Z,91.36
2022-08-05T02:00:20.752Z,91.86
2022-08-05T02:03:24.237Z,92.50
2022-08-05T02:05:59.678Z,93.19
2022-08-05T02:08:31.598Z,92.81
2022-08-05T02:11:08.245Z,93.21
2022-08-05T02:13:53.727Z,93.13
2022-08-05T02:16:35.890Z,93.20
2022-08-05T02:19:18.692Z,92.71
2022-08-05T02:21:59.360Z,92.37
2022-08-05T02:24:37.027Z,92.71
2022-08-05T02:27:11.489Z,92.87
2022-08-05T02:29:59.828Z,92.96
2022-08-05T02:32:35.237Z,93.14
2022-08-05T02:35:14.063Z,92.93
2022-08-05T02:37:47.697Z,92.87
2022-08-05T02:40:27.547Z,93.65
2022-08-05T02:42:58.829Z,93.52
2022-08-05T02:45:51.373Z,93.65
2022-08-05T02:48:20.880Z,94.27
2022-08-05T02:51:01.837Z,94.09
2022-08-05T02:53:39.769Z,94.76
2022-08-05T02:56:16.116Z,94.46
2022-08-05T02:58:51.643Z,95.79
2022-08-05T03:01:27.004Z,95.29
2022-08-05T03:04:12.949Z,95.59
2022-08-05T03:06:54.598Z,95.90
2022-08-05T03:09:38.205Z,95.90
2022-08-05T03:12:31.062Z,95.35
2022-08-05T03:14:59.982Z,95.97
2022-08-05T03:17:29.363Z,95.69
2022-08-05T03:19:59.775Z,96.19
2022-08-05T03:22:32.554Z,96.88
2022-08-05T03:25:31.452Z,96.83
2022-08-05T03:28:00.173Z,97.82
2022-08-05T03:30:34.036Z,97.95
2022-08-05T03:33:07.525Z,97.27
2022-08-05T03:35:40.429Z,98.04
2022-08-05T03:38:14.546Z,97.46
2022-08-05T03:40:45.295Z,97.55
2022-08-05T03:44:09.314Z,97.42
2022-08-05T03:46:08.311Z,96.87
2022-08-05T03:48:37.511Z,96.93
2022-08-05T03:52:48.982Z,97.51
2022-08-05T03:55:54.082Z,96.90
2022-08-05T03:57:16.681Z,98.01
2022-08-05T03:59:56.658Z,97.49
2022-08-05T04:02:37.369Z,97.75
2022-08-05T04:05:11.140Z,98.64
2022-08-05T04:07:57.491Z,97.84
2022-08-05T04:10:33.324Z,98.59
2022-08-05T04:13:08.316Z,98.46
2022-08-05T04:15:37.651Z,97.69
2022-08-05T04:18:08.013Z,97.86
2022-08-05T04:20:41.150Z,97.25
2022-08-05T04:23:16.022Z,97.03
2022-08-05T04:25:57.900Z,96.28
2022-08-05T04:28:30.985Z,96.46
2022-08-05T04:31:01.801Z,95.13
2022-08-05T04:34:17.066Z,94.78
2022-08-05T04:36:45.601Z,94.38
2022-08-05T04:39:15.597Z,93.94
2022-08-05T04:41:44.417Z,93.80
2022-08-05T04:44:14.547Z,92.42
2022-08-05T04:46:49.794Z,92.72
2022-08-05T04:49:24.571Z,92.29
2022-08-05T04:52:07.849Z,91.07
2022-08-05T04:54:37.800Z,91.49
2022-08-05T04:57:06.616Z,90.07
2022-08-05T04:59:38.961Z,89.84
2022-08-05T05:02:41.457Z,89.65
2022-08-05T05:05:02.835Z,89.03
2022-08-05T05:07:35.375Z,89.01
2022-08-05T05:10:07.111Z,88.64
2022-08-05T05:12:36.685Z,88.45
2022-08-05T05:15:10.772Z,88.05
2022-08-05T05:17:56.974Z,88.41
2022-08-05T05:20:28.244Z,88.16
2022-08-05T05:22:57.784Z,86.85
2022-08-05T05:25:40.576Z,86.36
2022-08-05T05:28:10.873Z,86.28
2022-08-05T05:30:40.642Z,86.36
2022-08-05T05:33:17.087Z,84.94
2022-08-05T05:35:47.617Z,84.10
2022-08-05T05:38:22.155Z,83.36
2022-08-05T05:40:57.380Z,82.45
2022-08-05T05:43:57.359Z,83.37
2022-08-05T05:46:17.674Z,81.15
2022-08-05T05:48:48.973Z,80.67
2022-08-05T05:51:23.232Z,79.17
2022-08-05T05:53:58.858Z,79.59
2022-08-05T05:56:34.776Z,78.22
2022-08-05T05:59:06.974Z,77.56
2022-08-05T06:01:40.190Z,76.94
2022-08-05T06:04:11.945Z,75.95
2022-08-05T06:06:47.303Z,76.35
2022-08-05T06:09:35.390Z,76.65
2022-08-05T06:12:10.343Z,76.58
2022-08-05T06:14:42.552Z,74.11
2022-08-05T06:17:22.019Z,74.52
2022-08-05T06:19:57.231Z,73.30
2022-08-05T06:22:34.049Z,74.46
2022-08-05T06:25:24.372Z,74.00
2022-08-05T06:28:11.370Z,72.29
2022-08-05T06:30:43.383Z,73.50
2022-08-05T06:33:12.150Z,72.20
2022-08-05T06:36:07.410Z,71.33
2022-08-05T06:38:37.207Z,70.32
2022-08-05T06:41:07.751Z,69.61
2022-08-05T06:43:58.516Z,68.86
2022-08-05T06:46:29.873Z,68.70
2022-08-05T06:49:00.781Z,68.70
2022-08-05T06:51:31.684Z,66.79
2022-08-05T06:54:01.731Z,67.39
2022-08-05T06:56:34.169Z,67.29
2022-08-05T06:59:09.575Z,66.39
2022-08-05T07:01:40.800Z,65.38
2022-08-05T07:04:14.053Z,65.09
2022-08-05T07:06:43.204Z,63.47
2022-08-05T07:09:11.794Z,62.31
2022-08-05T07:11:45.515Z,60.74
2022-08-05T07:14:38.910Z,59.38
2022-08-05T07:18:00.692Z,58.82
2022-08-05T07:22:45.724Z,55.42
2022-08-05T07:25:54.805Z,55.71
2022-08-05T07:28:09.648Z,54.80
2022-08-05T07:30:42.122Z,55.88
2022-08-05T07:33:16.154Z,54.26
2022-08-05T07:36:04.716Z,53.82
2022-08-05T07:38:42.570Z,53.61
2022-08-05T07:42:12.834Z,49.27
2022-08-05T07:44:18.795Z,47.49
2022-08-05T07:46:50.563Z,46.40
2022-08-05T07:49:20.502Z,43.27
2022-08-05T07:51:54.840Z,41.30
2022-08-05T07:54:31.486Z,41.63
2022-08-05T07:57:17.554Z,41.65
2022-08-05T07:59:53.489Z,41.42
2022-08-05T08:02:30.770Z,40.71
2022-08-05T08:05:17.444Z,39.29
2022-08-05T08:07:59.257Z,40.06
2022-08-05T08:10:30.153Z,40.24
2022-08-05T08:13:00.729Z,39.28
2022-08-05T08:16:33.433Z,40.76
2022-08-05T08:18:21.356Z,40.97
2022-08-05T08:21:02.475Z,41.75
2022-08-05T08:24:01.193Z,42.65
2022-08-05T08:26:29.396Z,39.41
2022-08-05T08:29:21.616Z,39.57
2022-08-05T08:31:49.906Z,38.67
2022-08-05T08:34:30.304Z,37.68
2022-08-05T08:37:03.215Z,36.54
2022-08-05T08:39:37.505Z,37.25
2022-08-05T08:42:27.566Z,36.74
2022-08-05T08:45:23.609Z,35.91
2022-08-05T08:48:07.488Z,36.63
2022-08-05T08:51:07.650Z,37.06
2022-08-05T08:53:44.363Z,36.74
2022-08-05T08:56:14.296Z,36.76
2022-08-05T08:58:47.865Z,36.07
2022-08-05T09:01:19.261Z,36.60
2022-08-05T09:03:54.535Z,36.63
2022-08-05T09:06:28.232Z,36.08
2022-08-05T09:09:01.182Z,36.49
2022-08-05T09:11:52.505Z,36.26
2022-08-05T09:14:56.727Z,36.11
2022-08-05T09:17:40.989Z,36.13
2022-08-05T09:20:05.327Z,34.56
2022-08-05T09:23:18.511Z,34.36
2022-08-05T09:25:59.825Z,35.51
2022-08-05T09:28:34.949Z,35.61
2022-08-05T09:31:18.245Z,36.38
2022-08-05T09:33:54.976Z,34.99
2022-08-05T09:36:27.828Z,36.37
2022-08-05T09:39:18.316Z,36.41
2022-08-05T09:41:59.525Z,36.44
2022-08-05T09:44:37.700Z,34.70
2022-08-05T09:47:12.611Z,33.52
2022-08-05T09:50:01.503Z,33.65
2022-08-05T09:52:34.015Z,33.90
2022-08-05T09:55:56.817Z,33.96
2022-08-05T09:57:58.580Z,34.80
2022-08-05T10:00:30.564Z,33.77
2022-08-05T10:02:59.496Z,33.61
2022-08-05T10:05:32.713Z,34.53
2022-08-05T10:08:34.999Z,35.33
2022-08-05T10:10:55.645Z,34.44
2022-08-05T10:13:47.861Z,34.25
2022-08-05T10:16:33.940Z,33.90
2022-08-05T10:19:08.544Z,33.73
2022-08-05T10:21:39.953Z,34.92
2022-08-05T10:24:13.473Z,35.42
2022-08-05T10:26:51.482Z,36.01
2022-08-05T10:30:05.786Z,34.79
2022-08-05T10:32:55.538Z,35.19
2022-08-05T10:35:02.196Z,36.25
2022-08-05T10:37:40.372Z,36.24
2022-08-05T10:40:29.185Z,36.30
2022-08-05T10:43:11.171Z,35.74
2022-08-05T10:45:42.361Z,37.62
2022-08-05T10:48:40.677Z,36.02
2022-08-05T10:51:29.353Z,35.50
2022-08-05T10:54:02.023Z,37.12
2022-08-05T10:56:47.434Z,36.73
2022-08-05T11:00:03.289Z,35.68
2022-08-05T11:02:34.996Z,37.20
2022-08-05T11:05:10.261Z,37.01
2022-08-05T11:08:02.967Z,37.21
2022-08-05T11:10:50.461Z,37.38
2022-08-05T11:13:54.734Z,36.89
2022-08-05T11:16:47.895Z,38.64
2022-08-05T11:20:10.192Z,36.98
2022-08-05T11:22:43.491Z,37.95
2022-08-05T11:26:05.735Z,38.00
2022-08-05T11:28:47.812Z,38.73
2022-08-05T11:31:54.484Z,36.26
2022-08-05T11:34:38.259Z,38.48
2022-08-05T11:38:29.336Z,38.95
2022-08-05T11:40:03.010Z,38.93
2022-08-05T11:42:40.356Z,39.84
2022-08-05T11:45:14.238Z,40.14
2022-08-05T11:47:58.986Z,39.89
2022-08-05T11:50:28.528Z,40.12
2022-08-05T11:52:58.319Z,40.39
2022-08-05T11:55:32.022Z,41.13
2022-08-05T11:58:09.743Z,40.88
2022-08-05T12:00:44.392Z,41.96
2022-08-05T12:03:29.328Z,41.82
2022-08-05T12:06:06.205Z,40.77
2022-08-05T12:08:49.902Z,41.97
2022-08-05T12:11:22.211Z,42.79
2022-08-05T12:14:00.903Z,41.98
2022-08-05T12:16:38.585Z,41.75
2022-08-05T12:20:26.604Z,41.93
2022-08-05T12:22:01.664Z,42.80
2022-08-05T12:24:30.425Z,42.32
2022-08-05T12:26:59.435Z,42.96
2022-08-05T12:29:39.262Z,42.82
2022-08-05T12:32:09.713Z,44.28
2022-08-05T12:34:40.430Z,44.46
2022-08-05T12:37:17.374Z,45.41
2022-08-05T12:39:51.919Z,44.10
2022-08-05T12:42:25.201Z,44.90
2022-08-05T12:45:03.252Z,43.43
2022-08-05T12:47:43.494Z,43.64
2022-08-05T12:50:30.975Z,44.67
2022-08-05T12:53:00.522Z,43.61
2022-08-05T12:55:32.925Z,44.51
2022-08-05T12:58:50.806Z,43.97
2022-08-05T13:02:02.757Z,44.12
2022-08-05T13:03:43.295Z,45.16
2022-08-05T13:06:19.891Z,43.66
2022-08-05T13:08:49.203Z,43.56
2022-08-05T13:11:35.062Z,43.47
2022-08-05T13:14:19.699Z,43.82
2022-08-05T13:16:56.632Z,43.78
2022-08-05T13:19:52.104Z,43.55
2022-08-05T13:22:28.458Z,44.28
2022-08-05T13:25:05.135Z,43.37
2022-08-05T13:27:39.189Z,43.72
2022-08-05T13:30:34.137Z,43.61
2022-08-05T13:33:01.459Z,43.66
2022-08-05T13:35:47.033Z,43.63
2022-08-05T13:38:30.635Z,43.25
2022-08-05T13:41:00.728Z,43.57
2022-08-05T13:43:45.792Z,43.65
2022-08-05T13:46:35.814Z,42.92
2022-08-05T13:49:10.198Z,44.29
2022-08-05T13:51:46.383Z,42.73
2022-08-05T13:54:21.110Z,43.27
2022-08-05T13:56:54.648Z,42.36
2022-08-05T13:59:27.138Z,42.59
2022-08-05T14:02:00.026Z,42.43
2022-08-05T14:04:51.120Z,43.54
2022-08-05T14:07:26.257Z,43.08
2022-08-05T14:10:18.750Z,42.25
2022-08-05T14:12:49.095Z,42.46
2022-08-05T14:16:04.602Z,42.51
2022-08-05T14:18:15.173Z,42.74
2022-08-05T14:20:48.387Z,42.88
2022-08-05T14:23:24.569Z,42.40
2022-08-05T14:25:59.017Z,43.30
2022-08-05T14:28:29.717Z,42.27
2022-08-05T14:31:01.394Z,42.67
2022-08-05T14:33:56.353Z,42.00
2022-08-05T14:36:20.595Z,43.37
2022-08-05T14:38:51.298Z,42.47
2022-08-05T14:41:22.017Z,42.45
2022-08-05T14:44:00.034Z,44.80
2022-08-05T14:46:35.606Z,42.55
2022-08-05T14:49:08.110Z,42.47
2022-08-05T14:51:42.868Z,41.78
2022-08-05T14:54:28.207Z,42.50
2022-08-05T14:57:00.930Z,42.95
2022-08-05T14:59:35.797Z,43.96
2022-08-05T15:02:14.699Z,43.54
2022-08-05T15:04:44.939Z,42.15
2022-08-05T15:08:05.775Z,42.73
2022-08-05T15:10:09.695Z,42.70
2022-08-05T15:13:00.158Z,42.62
2022-08-05T15:15:55.964Z,42.18
2022-08-05T15:18:17.896Z,43.13
2022-08-05T15:20:47.087Z,43.21
2022-08-05T15:23:16.755Z,43.50
2022-08-05T15:25:52.398Z,42.41
2022-08-05T15:28:27.793Z,42.99
2022-08-05T15:30:57.589Z,42.31
2022-08-05T15:34:05.787Z,43.01
2022-08-05T15:36:17.224Z,42.54
2022-08-05T15:40:42.682Z,42.88
2022-08-05T15:41:55.684Z,41.79
2022-08-05T15:44:30.272Z,42.14
2022-08-05T15:47:01.805Z,41.52
2022-08-05T15:49:48.137Z,42.24
2022-08-05T15:52:52.024Z,42.91
2022-08-05T15:55:16.282Z,43.04
2022-08-05T15:57:46.026Z,42.45
2022-08-05T16:00:26.251Z,42.43
2022-08-05T16:03:10.076Z,43.02
2022-08-05T16:05:39.233Z,44.99
2022-08-05T16:08:10.801Z,40.99
2022-08-05T16:10:45.881Z,41.41
2022-08-05T16:13:19.300Z,41.50
2022-08-05T16:15:53.959Z,41.50
2022-08-05T16:18:28.112Z,41.25
2022-08-05T16:20:59.764Z,40.53
2022-08-05T16:23:54.045Z,40.02
2022-08-05T16:26:26.378Z,40.03
2022-08-05T16:28:56.494Z,39.10
2022-08-05T16:31:26.601Z,39.26
2022-08-05T16:34:15.667Z,38.93
2022-08-05T16:36:44.742Z,39.09
2022-08-05T16:39:13.671Z,40.58
2022-08-05T16:42:13.943Z,41.56
2022-08-05T16:44:32.253Z,42.72
2022-08-05T16:47:03.794Z,44.14
2022-08-05T16:49:33.226Z,43.79
2022-08-05T16:52:02.739Z,43.88
2022-08-05T16:54:33.161Z,44.59
2022-08-05T16:57:02.080Z,45.67
2022-08-05T16:59:31.060Z,45.01
2022-08-05T17:02:00.969Z,46.18
2022-08-05T17:04:31.286Z,46.71
2022-08-05T17:07:01.812Z,46.03
2022-08-05T17:09:39.001Z,46.41
2022-08-05T17:12:22.621Z,46.53
2022-08-05T17:15:15.564Z,47.21
2022-08-05T17:17:44.562Z,51.08
2022-08-05T17:20:16.516Z,51.42
2022-08-05T17:22:45.458Z,53.67
2022-08-05T17:25:40.154Z,55.23
2022-08-05T17:28:10.126Z,57.59
2022-08-05T17:30:42.396Z,56.04
2022-08-05T17:33:19.981Z,60.07
2022-08-05T17:36:09.153Z,60.92
2022-08-05T17:38:39.926Z,64.19
2022-08-05T17:41:11.671Z,65.17
2022-08-05T17:43:58.342Z,63.00
2022-08-05T17:46:27.813Z,63.88
2022-08-05T17:48:56.494Z,66.42
2022-08-05T17:51:28.074Z,67.13
2022-08-05T17:54:09.081Z,68.11
2022-08-05T17:56:38.398Z,67.96
2022-08-05T17:59:07.093Z,69.07
2022-08-05T18:01:42.681Z,68.92
2022-08-05T18:04:21.130Z,69.40
2022-08-05T18:06:51.803Z,70.50
2022-08-05T18:09:21.378Z,71.05
2022-08-05T18:11:52.581Z,72.17
2022-08-05T18:14:21.395Z,71.09
2022-08-05T18:16:52.440Z,71.68
2022-08-05T18:19:23.347Z,71.07
2022-08-05T18:22:09.749Z,74.24
2022-08-05T18:24:41.292Z,74.26
2022-08-05T18:27:18.115Z,72.98
2022-08-05T18:29:54.029Z,72.82
2022-08-05T18:32:28.107Z,73.53
2022-08-05T18:34:57.841Z,73.40
2022-08-05T18:37:33.453Z,74.06
2022-08-05T18:40:34.497Z,74.69
2022-08-05T18:42:52.751Z,75.43
2022-08-05T18:45:21.892Z,76.57
2022-08-05T18:47:56.699Z,77.55
2022-08-05T18:50:46.425Z,77.30
2022-08-05T18:53:24.556Z,77.14
2022-08-05T18:55:55.086Z,77.15
2022-08-05T18:58:28.719Z,77.18
2022-08-05T19:00:58.304Z,77.44
2022-08-05T19:03:53.506Z,76.30
2022-08-05T19:06:21.944Z,76.97
2022-08-05T19:08:52.450Z,77.70
2022-08-05T19:11:28.397Z,77.81
2022-08-05T19:14:01.062Z,77.20
2022-08-05T19:16:46.862Z,76.45
2022-08-05T19:19:16.205Z,75.84
2022-08-05T19:21:50.577Z,76.41
2022-08-05T19:24:34.357Z,75.77
2022-08-05T19:27:05.670Z,72.51
2022-08-05T19:29:36.460Z,74.25
2022-08-05T19:32:11.179Z,74.51
2022-08-05T19:34:40.393Z,75.01
2022-08-05T19:37:10.093Z,76.02
2022-08-05T19:39:47.740Z,76.50
2022-08-05T19:42:36.201Z,77.35
2022-08-05T19:45:07.200Z,76.50
2022-08-05T19:47:37.904Z,77.41
2022-08-05T19:50:10.610Z,77.88
2022-08-05T19:52:41.498Z,78.50
2022-08-05T19:56:15.739Z,77.49
2022-08-05T19:58:07.134Z,78.14
2022-08-05T20:00:49.620Z,78.83
2022-08-05T20:03:18.579Z,78.50
2022-08-05T20:05:51.270Z,77.55
2022-08-05T20:08:24.507Z,78.11
2022-08-05T20:10:55.518Z,79.56
2022-08-05T20:13:30.087Z,81.25
2022-08-05T20:16:13.501Z,80.75
2022-08-05T20:18:48.640Z,79.97
2022-08-05T20:21:25.515Z,81.38
2022-08-05T20:23:54.465Z,80.13
2022-08-05T20:26:26.353Z,79.78
2022-08-05T20:29:00.743Z,80.41
2022-08-05T20:31:42.005Z,81.77
2022-08-05T20:34:19.178Z,81.90
2022-08-05T20:36:48.720Z,79.53
2022-08-05T20:39:18.791Z,78.84
2022-08-05T20:41:49.343Z,79.04
2022-08-05T20:44:29.691Z,78.59
2022-08-05T20:47:03.213Z,77.81
2022-08-05T20:49:33.204Z,77.79
2022-08-05T20:52:10.764Z,77.18
2022-08-05T20:54:59.719Z,77.20
2022-08-05T20:57:43.603Z,76.67
2022-08-05T21:00:41.591Z,77.78
2022-08-05T21:03:08.001Z,78.26
2022-08-05T21:05:53.998Z,78.76
2022-08-05T21:08:28.060Z,78.22
2022-08-05T21:11:12.029Z,76.75
2022-08-05T21:13:55.632Z,76.86
2022-08-05T21:16:29.429Z,77.63
2022-08-05T21:19:01.125Z,77.83
2022-08-05T21:21:39.831Z,78.04
2022-08-05T21:24:15.614Z,76.52
2022-08-05T21:26:53.613Z,77.19
2022-08-05T21:29:32.007Z,78.88
2022-08-05T21:32:03.365Z,78.53
2022-08-05T21:34:35.438Z,77.94
2022-08-05T21:37:04.857Z,78.09
2022-08-05T21:39:34.795Z,77.95
2022-08-05T21:42:30.995Z,77.58
2022-08-05T21:44:59.879Z,78.24
2022-08-05T21:47:55.076Z,77.41
2022-08-05T21:50:18.285Z,76.68
2022-08-05T21:52:47.358Z,77.43
2022-08-05T21:55:17.246Z,78.05
2022-08-05T21:57:46.513Z,77.77
2022-08-05T22:00:18.426Z,78.63
2022-08-05T22:02:47.857Z,78.06
2022-08-05T22:05:16.530Z,78.09
2022-08-05T22:07:59.031Z,78.66
2022-08-05T22:10:31.029Z,77.81
2022-08-05T22:13:08.846Z,78.17
2022-08-05T22:16:02.070Z,77.71
2022-08-05T22:18:39.952Z,78.90
2022-08-05T22:21:19.410Z,78.63
2022-08-05T22:24:09.144Z,78.51
2022-08-05T22:27:00.024Z,79.18
2022-08-05T22:29:30.798Z,80.40
2022-08-05T22:32:03.613Z,80.25
2022-08-05T22:34:33.204Z,80.43
2022-08-05T22:37:03.662Z,80.57
2022-08-05T22:39:34.453Z,80.36
2022-08-05T22:42:12.370Z,80.42
2022-08-05T22:44:55.479Z,80.69
2022-08-05T22:47:29.285Z,80.50
2022-08-05T22:50:21.777Z,81.28
2022-08-05T22:52:51.272Z,81.29
2022-08-05T22:55:21.958Z,81.66
2022-08-05T22:57:52.353Z,81.32
2022-08-05T23:00:24.113Z,81.18
2022-08-05T23:02:56.891Z,81.49
2022-08-05T23:05:26.838Z,81.21
2022-08-05T23:07:55.715Z,81.76
2022-08-05T23:10:24.536Z,82.47
2022-08-05T23:12:55.893Z,82.42
2022-08-05T23:15:29.820Z,82.94
2022-08-05T23:18:11.801Z,82.16
2022-08-05T23:20:44.979Z,82.90
2022-08-05T23:23:13.707Z,83.16
2022-08-05T23:25:53.524Z,83.72
2022-08-05T23:28:29.156Z,84.36
2022-08-05T23:31:03.708Z,84.69
2022-08-05T23:34:04.915Z,84.93
2022-08-05T23:36:40.261Z,86.37
2022-08-05T23:39:17.599Z,87.55
2022-08-05T23:41:53.935Z,88.01
2022-08-05T23:44:28.017Z,88.78
2022-08-05T23:47:02.586Z,89.75
2022-08-05T23:49:46.825Z,88.92
2022-08-05T23:52:29.300Z,89.38
2022-08-05T23:55:05.248Z,88.69
2022-08-05T23:57:36.151Z,88.59
